sensor_id;sensor_type;location;lat;lon;timestamp;temperature;humidity
22795;DHT22;11564;50.920;11.612;2023-08-24T00:02:07;14.00;99.90
22795;DHT22;11564;50.920;11.612;2023-08-24T00:04:33;14.00;99.90
22795;DHT22;11564;50.920;11.612;2023-08-24T00:06:59;13.90;99.90
22795;DHT22;11564;50.920;11.612;2023-08-24T00:09:26;13.90;99.90
22795;DHT22;11564;50.920;11.612;2023-08-24T00:11:52;13.90;99.90
22795;DHT22;11564;50.920;11.612;2023-08-24T00:14:18;14.00;99.90
22795;DHT22;11564;50.920;11.612;2023-08-24T00:16:44;13.90;99.90
22795;DHT22;11564;50.920;11.612;2023-08-24T00:19:09;13.90;99.90
22795;DHT22;11564;50.920;11.612;2023-08-24T00:21:35;13.90;99.90
22795;DHT22;11564;50.920;11.612;2023-08-24T00:24:01;13.90;99.90
22795;DHT22;11564;50.920;11.612;2023-08-24T00:26:26;13.90;99.90
22795;DHT22;11564;50.920;11.612;2023-08-24T00:28:52;13.90;99.90
22795;DHT22;11564;50.920;11.612;2023-08-24T00:31:18;13.80;99.90
22795;DHT22;11564;50.920;11.612;2023-08-24T00:33:43;13.80;99.90
22795;DHT22;11564;50.920;11.612;2023-08-24T00:36:09;13.70;99.90
22795;DHT22;11564;50.920;11.612;2023-08-24T00:38:35;13.70;99.90
22795;DHT22;11564;50.920;11.612;2023-08-24T00:41:00;13.70;99.90
22795;DHT22;11564;50.920;11.612;2023-08-24T00:43:26;13.70;99.90
22795;DHT22;11564;50.920;11.612;2023-08-24T00:45:55;13.70;99.90
22795;DHT22;11564;50.920;11.612;2023-08-24T00:48:21;13.70;99.90
22795;DHT22;11564;50.920;11.612;2023-08-24T00:50:52;13.70;99.90
22795;DHT22;11564;50.920;11.612;2023-08-24T00:53:17;13.60;99.90
22795;DHT22;11564;50.920;11.612;2023-08-24T00:55:44;13.60;99.90
22795;DHT22;11564;50.920;11.612;2023-08-24T00:58:10;13.60;99.90
22795;DHT22;11564;50.920;11.612;2023-08-24T01:00:36;13.60;99.90
22795;DHT22;11564;50.920;11.612;2023-08-24T01:03:03;13.60;99.90
22795;DHT22;11564;50.920;11.612;2023-08-24T01:05:28;13.50;99.90
22795;DHT22;11564;50.920;11.612;2023-08-24T01:07:54;13.60;99.90
22795;DHT22;11564;50.920;11.612;2023-08-24T01:10:20;13.60;99.90
22795;DHT22;11564;50.920;11.612;2023-08-24T01:13:02;13.60;99.90
22795;DHT22;11564;50.920;11.612;2023-08-24T01:18:23;13.50;99.90
22795;DHT22;11564;50.920;11.612;2023-08-24T01:20:52;13.50;99.90
22795;DHT22;11564;50.920;11.612;2023-08-24T01:23:32;13.50;99.90
22795;DHT22;11564;50.920;11.612;2023-08-24T01:26:18;13.50;99.90
22795;DHT22;11564;50.920;11.612;2023-08-24T01:28:44;13.40;99.90
22795;DHT22;11564;50.920;11.612;2023-08-24T01:31:11;13.40;99.90
22795;DHT22;11564;50.920;11.612;2023-08-24T01:33:39;13.40;99.90
22795;DHT22;11564;50.920;11.612;2023-08-24T01:36:06;13.40;99.90
22795;DHT22;11564;50.920;11.612;2023-08-24T01:38:32;13.40;99.90
22795;DHT22;11564;50.920;11.612;2023-08-24T01:41:12;13.40;99.90
22795;DHT22;11564;50.920;11.612;2023-08-24T01:43:43;13.30;99.90
22795;DHT22;11564;50.920;11.612;2023-08-24T01:46:15;13.30;99.90
22795;DHT22;11564;50.920;11.612;2023-08-24T01:48:42;13.30;99.90
22795;DHT22;11564;50.920;11.612;2023-08-24T01:51:09;13.30;99.90
22795;DHT22;11564;50.920;11.612;2023-08-24T01:53:35;13.20;99.90
22795;DHT22;11564;50.920;11.612;2023-08-24T01:56:08;13.20;99.90
22795;DHT22;11564;50.920;11.612;2023-08-24T01:58:34;13.20;99.90
22795;DHT22;11564;50.920;11.612;2023-08-24T02:01:00;13.20;99.90
22795;DHT22;11564;50.920;11.612;2023-08-24T02:03:25;13.20;99.90
22795;DHT22;11564;50.920;11.612;2023-08-24T02:05:51;13.20;99.90
22795;DHT22;11564;50.920;11.612;2023-08-24T02:08:16;13.20;99.90
22795;DHT22;11564;50.920;11.612;2023-08-24T02:10:42;13.20;99.90
22795;DHT22;11564;50.920;11.612;2023-08-24T02:13:08;13.10;99.90
22795;DHT22;11564;50.920;11.612;2023-08-24T02:15:33;13.10;99.90
22795;DHT22;11564;50.920;11.612;2023-08-24T02:17:59;13.10;99.90
22795;DHT22;11564;50.920;11.612;2023-08-24T02:20:24;13.10;99.90
22795;DHT22;11564;50.920;11.612;2023-08-24T02:22:50;13.00;99.90
22795;DHT22;11564;50.920;11.612;2023-08-24T02:25:16;13.00;99.90
22795;DHT22;11564;50.920;11.612;2023-08-24T02:27:41;13.00;99.90
22795;DHT22;11564;50.920;11.612;2023-08-24T02:30:07;13.00;99.90
22795;DHT22;11564;50.920;11.612;2023-08-24T02:32:33;13.00;99.90
22795;DHT22;11564;50.920;11.612;2023-08-24T02:34:59;13.00;99.90
22795;DHT22;11564;50.920;11.612;2023-08-24T02:37:24;13.00;99.90
22795;DHT22;11564;50.920;11.612;2023-08-24T02:39:50;13.00;99.90
22795;DHT22;11564;50.920;11.612;2023-08-24T02:42:15;12.90;99.90
22795;DHT22;11564;50.920;11.612;2023-08-24T02:44:41;12.90;99.90
22795;DHT22;11564;50.920;11.612;2023-08-24T02:47:06;12.90;99.90
22795;DHT22;11564;50.920;11.612;2023-08-24T02:49:32;12.90;99.90
22795;DHT22;11564;50.920;11.612;2023-08-24T02:51:58;12.90;99.90
22795;DHT22;11564;50.920;11.612;2023-08-24T02:54:23;12.90;99.90
22795;DHT22;11564;50.920;11.612;2023-08-24T02:56:49;12.80;99.90
22795;DHT22;11564;50.920;11.612;2023-08-24T02:59:14;12.80;99.90
22795;DHT22;11564;50.920;11.612;2023-08-24T03:01:40;12.80;99.90
22795;DHT22;11564;50.920;11.612;2023-08-24T03:04:06;12.90;99.90
22795;DHT22;11564;50.920;11.612;2023-08-24T03:06:32;12.80;99.90
22795;DHT22;11564;50.920;11.612;2023-08-24T03:08:59;12.80;99.90
22795;DHT22;11564;50.920;11.612;2023-08-24T03:11:24;12.80;99.90
22795;DHT22;11564;50.920;11.612;2023-08-24T03:13:50;12.80;99.90
22795;DHT22;11564;50.920;11.612;2023-08-24T03:16:16;12.80;99.90
22795;DHT22;11564;50.920;11.612;2023-08-24T03:18:41;12.80;99.90
22795;DHT22;11564;50.920;11.612;2023-08-24T03:21:07;12.80;99.90
22795;DHT22;11564;50.920;11.612;2023-08-24T03:23:32;12.80;99.90
22795;DHT22;11564;50.920;11.612;2023-08-24T03:25:58;12.80;99.90
22795;DHT22;11564;50.920;11.612;2023-08-24T03:28:24;12.80;99.90
22795;DHT22;11564;50.920;11.612;2023-08-24T03:30:52;12.70;99.90
22795;DHT22;11564;50.920;11.612;2023-08-24T03:33:20;12.70;99.90
22795;DHT22;11564;50.920;11.612;2023-08-24T03:35:46;12.80;99.90
22795;DHT22;11564;50.920;11.612;2023-08-24T03:38:13;12.70;99.90
22795;DHT22;11564;50.920;11.612;2023-08-24T03:40:39;12.70;99.90
22795;DHT22;11564;50.920;11.612;2023-08-24T03:43:05;12.70;99.90
22795;DHT22;11564;50.920;11.612;2023-08-24T03:45:30;12.70;99.90
22795;DHT22;11564;50.920;11.612;2023-08-24T03:47:56;12.70;99.90
22795;DHT22;11564;50.920;11.612;2023-08-24T03:50:22;12.70;99.90
22795;DHT22;11564;50.920;11.612;2023-08-24T03:52:51;12.60;99.90
22795;DHT22;11564;50.920;11.612;2023-08-24T03:55:17;12.60;99.90
22795;DHT22;11564;50.920;11.612;2023-08-24T03:57:42;12.60;99.90
22795;DHT22;11564;50.920;11.612;2023-08-24T04:00:09;12.60;99.90
22795;DHT22;11564;50.920;11.612;2023-08-24T04:02:38;12.50;99.90
22795;DHT22;11564;50.920;11.612;2023-08-24T04:05:04;12.40;99.90
22795;DHT22;11564;50.920;11.612;2023-08-24T04:07:30;12.40;99.90
22795;DHT22;11564;50.920;11.612;2023-08-24T04:09:56;12.40;99.90
22795;DHT22;11564;50.920;11.612;2023-08-24T04:12:22;12.40;99.90
22795;DHT22;11564;50.920;11.612;2023-08-24T04:14:47;12.40;99.90
22795;DHT22;11564;50.920;11.612;2023-08-24T04:17:14;12.40;99.90
22795;DHT22;11564;50.920;11.612;2023-08-24T04:19:40;12.40;99.90
22795;DHT22;11564;50.920;11.612;2023-08-24T04:22:05;12.40;99.90
22795;DHT22;11564;50.920;11.612;2023-08-24T04:24:31;12.40;99.90
22795;DHT22;11564;50.920;11.612;2023-08-24T04:26:56;12.50;99.90
22795;DHT22;11564;50.920;11.612;2023-08-24T04:29:22;12.50;99.90
22795;DHT22;11564;50.920;11.612;2023-08-24T04:31:47;12.50;99.90
22795;DHT22;11564;50.920;11.612;2023-08-24T04:34:13;12.50;99.90
22795;DHT22;11564;50.920;11.612;2023-08-24T04:36:39;12.60;99.90
22795;DHT22;11564;50.920;11.612;2023-08-24T04:39:04;12.60;99.90
22795;DHT22;11564;50.920;11.612;2023-08-24T04:41:30;12.60;99.90
22795;DHT22;11564;50.920;11.612;2023-08-24T04:43:55;12.60;99.90
22795;DHT22;11564;50.920;11.612;2023-08-24T04:46:21;12.60;99.90
22795;DHT22;11564;50.920;11.612;2023-08-24T04:48:47;12.70;99.90
22795;DHT22;11564;50.920;11.612;2023-08-24T04:51:13;12.70;99.90
22795;DHT22;11564;50.920;11.612;2023-08-24T04:53:38;12.70;99.90
22795;DHT22;11564;50.920;11.612;2023-08-24T04:56:04;12.70;99.90
22795;DHT22;11564;50.920;11.612;2023-08-24T04:58:32;12.70;99.90
22795;DHT22;11564;50.920;11.612;2023-08-24T05:00:58;12.70;99.90
22795;DHT22;11564;50.920;11.612;2023-08-24T05:03:24;12.80;99.90
22795;DHT22;11564;50.920;11.612;2023-08-24T05:05:49;12.80;99.90
22795;DHT22;11564;50.920;11.612;2023-08-24T05:08:15;12.80;99.90
22795;DHT22;11564;50.920;11.612;2023-08-24T05:10:40;12.80;99.90
22795;DHT22;11564;50.920;11.612;2023-08-24T05:13:06;12.90;99.90
22795;DHT22;11564;50.920;11.612;2023-08-24T05:15:32;12.90;99.90
22795;DHT22;11564;50.920;11.612;2023-08-24T05:17:57;13.00;99.90
22795;DHT22;11564;50.920;11.612;2023-08-24T05:20:25;13.10;99.90
22795;DHT22;11564;50.920;11.612;2023-08-24T05:22:51;13.10;99.90
22795;DHT22;11564;50.920;11.612;2023-08-24T05:25:16;13.20;99.90
22795;DHT22;11564;50.920;11.612;2023-08-24T05:27:43;13.20;99.90
22795;DHT22;11564;50.920;11.612;2023-08-24T05:30:09;13.30;99.90
22795;DHT22;11564;50.920;11.612;2023-08-24T05:32:35;13.40;99.90
22795;DHT22;11564;50.920;11.612;2023-08-24T05:35:08;13.50;99.90
22795;DHT22;11564;50.920;11.612;2023-08-24T05:37:34;13.60;99.90
22795;DHT22;11564;50.920;11.612;2023-08-24T05:40:00;13.60;99.90
22795;DHT22;11564;50.920;11.612;2023-08-24T05:42:26;13.70;99.90
22795;DHT22;11564;50.920;11.612;2023-08-24T05:44:52;13.80;99.90
22795;DHT22;11564;50.920;11.612;2023-08-24T05:47:18;13.90;99.90
22795;DHT22;11564;50.920;11.612;2023-08-24T05:49:43;14.00;99.90
22795;DHT22;11564;50.920;11.612;2023-08-24T05:52:09;14.10;99.90
22795;DHT22;11564;50.920;11.612;2023-08-24T05:54:36;14.20;99.90
22795;DHT22;11564;50.920;11.612;2023-08-24T05:57:03;14.20;99.90
22795;DHT22;11564;50.920;11.612;2023-08-24T05:59:29;14.30;99.90
22795;DHT22;11564;50.920;11.612;2023-08-24T06:01:55;14.40;99.90
22795;DHT22;11564;50.920;11.612;2023-08-24T06:04:21;14.50;99.90
22795;DHT22;11564;50.920;11.612;2023-08-24T06:06:46;14.60;99.90
22795;DHT22;11564;50.920;11.612;2023-08-24T06:09:12;14.60;99.90
22795;DHT22;11564;50.920;11.612;2023-08-24T06:11:37;14.80;99.90
22795;DHT22;11564;50.920;11.612;2023-08-24T06:14:03;14.90;99.90
22795;DHT22;11564;50.920;11.612;2023-08-24T06:16:29;15.00;99.90
22795;DHT22;11564;50.920;11.612;2023-08-24T06:18:55;15.10;99.90
22795;DHT22;11564;50.920;11.612;2023-08-24T06:21:20;15.30;99.90
22795;DHT22;11564;50.920;11.612;2023-08-24T06:23:46;15.30;99.90
22795;DHT22;11564;50.920;11.612;2023-08-24T06:26:13;15.50;99.90
22795;DHT22;11564;50.920;11.612;2023-08-24T06:28:39;15.60;99.90
22795;DHT22;11564;50.920;11.612;2023-08-24T06:31:05;15.60;99.90
22795;DHT22;11564;50.920;11.612;2023-08-24T06:33:37;15.70;99.90
22795;DHT22;11564;50.920;11.612;2023-08-24T06:36:04;15.80;99.90
22795;DHT22;11564;50.920;11.612;2023-08-24T06:38:33;15.80;99.90
22795;DHT22;11564;50.920;11.612;2023-08-24T06:40:59;16.00;99.90
22795;DHT22;11564;50.920;11.612;2023-08-24T06:43:25;16.10;99.90
22795;DHT22;11564;50.920;11.612;2023-08-24T06:45:51;16.20;99.90
22795;DHT22;11564;50.920;11.612;2023-08-24T06:48:17;16.30;99.90
22795;DHT22;11564;50.920;11.612;2023-08-24T06:50:43;16.50;99.90
22795;DHT22;11564;50.920;11.612;2023-08-24T06:53:09;16.60;99.90
22795;DHT22;11564;50.920;11.612;2023-08-24T06:55:35;16.70;99.90
22795;DHT22;11564;50.920;11.612;2023-08-24T06:58:02;16.90;99.90
22795;DHT22;11564;50.920;11.612;2023-08-24T07:00:30;17.00;99.90
22795;DHT22;11564;50.920;11.612;2023-08-24T07:02:56;17.20;99.90
22795;DHT22;11564;50.920;11.612;2023-08-24T07:05:22;17.40;99.90
22795;DHT22;11564;50.920;11.612;2023-08-24T07:07:51;17.60;99.90
22795;DHT22;11564;50.920;11.612;2023-08-24T07:10:17;17.70;99.90
22795;DHT22;11564;50.920;11.612;2023-08-24T07:12:43;17.80;99.90
22795;DHT22;11564;50.920;11.612;2023-08-24T07:15:11;18.00;99.90
22795;DHT22;11564;50.920;11.612;2023-08-24T07:17:36;18.10;99.90
22795;DHT22;11564;50.920;11.612;2023-08-24T07:20:03;18.50;99.90
22795;DHT22;11564;50.920;11.612;2023-08-24T07:22:31;18.80;99.90
22795;DHT22;11564;50.920;11.612;2023-08-24T07:24:56;19.00;99.90
22795;DHT22;11564;50.920;11.612;2023-08-24T07:27:22;19.10;99.90
22795;DHT22;11564;50.920;11.612;2023-08-24T07:29:48;19.30;99.90
22795;DHT22;11564;50.920;11.612;2023-08-24T07:32:13;19.40;99.90
22795;DHT22;11564;50.920;11.612;2023-08-24T07:34:39;19.40;99.90
22795;DHT22;11564;50.920;11.612;2023-08-24T07:37:04;19.40;99.90
22795;DHT22;11564;50.920;11.612;2023-08-24T07:39:30;19.40;99.90
22795;DHT22;11564;50.920;11.612;2023-08-24T07:41:56;19.40;99.90
22795;DHT22;11564;50.920;11.612;2023-08-24T07:44:21;19.50;99.90
22795;DHT22;11564;50.920;11.612;2023-08-24T07:46:47;19.70;99.90
22795;DHT22;11564;50.920;11.612;2023-08-24T07:49:13;19.90;99.90
22795;DHT22;11564;50.920;11.612;2023-08-24T07:51:39;20.10;99.90
22795;DHT22;11564;50.920;11.612;2023-08-24T07:54:04;20.20;99.90
22795;DHT22;11564;50.920;11.612;2023-08-24T07:56:32;20.40;99.90
22795;DHT22;11564;50.920;11.612;2023-08-24T07:58:58;20.60;99.90
22795;DHT22;11564;50.920;11.612;2023-08-24T08:01:24;21.00;99.90
22795;DHT22;11564;50.920;11.612;2023-08-24T08:03:49;21.40;99.90
22795;DHT22;11564;50.920;11.612;2023-08-24T08:06:15;21.60;99.90
22795;DHT22;11564;50.920;11.612;2023-08-24T08:08:41;21.70;99.90
22795;DHT22;11564;50.920;11.612;2023-08-24T08:11:06;21.90;99.90
22795;DHT22;11564;50.920;11.612;2023-08-24T08:13:32;22.20;99.90
22795;DHT22;11564;50.920;11.612;2023-08-24T08:16:02;22.30;99.90
22795;DHT22;11564;50.920;11.612;2023-08-24T08:18:29;22.30;99.90
22795;DHT22;11564;50.920;11.612;2023-08-24T08:20:54;22.50;99.90
22795;DHT22;11564;50.920;11.612;2023-08-24T08:23:20;22.90;99.90
22795;DHT22;11564;50.920;11.612;2023-08-24T08:25:46;23.30;99.90
22795;DHT22;11564;50.920;11.612;2023-08-24T08:28:11;24.00;99.90
22795;DHT22;11564;50.920;11.612;2023-08-24T08:30:38;24.30;99.90
22795;DHT22;11564;50.920;11.612;2023-08-24T08:33:03;24.80;99.90
22795;DHT22;11564;50.920;11.612;2023-08-24T08:35:30;25.20;99.90
22795;DHT22;11564;50.920;11.612;2023-08-24T08:37:55;25.50;99.90
22795;DHT22;11564;50.920;11.612;2023-08-24T08:40:21;25.80;99.90
22795;DHT22;11564;50.920;11.612;2023-08-24T08:42:50;25.80;99.90
22795;DHT22;11564;50.920;11.612;2023-08-24T08:45:16;25.70;99.90
22795;DHT22;11564;50.920;11.612;2023-08-24T08:47:44;25.70;99.90
22795;DHT22;11564;50.920;11.612;2023-08-24T08:50:09;26.00;99.90
22795;DHT22;11564;50.920;11.612;2023-08-24T08:52:35;25.90;99.90
22795;DHT22;11564;50.920;11.612;2023-08-24T08:55:01;25.50;99.90
22795;DHT22;11564;50.920;11.612;2023-08-24T08:57:31;25.70;99.70
22795;DHT22;11564;50.920;11.612;2023-08-24T08:59:58;25.30;99.90
22795;DHT22;11564;50.920;11.612;2023-08-24T09:02:24;25.20;99.90
22795;DHT22;11564;50.920;11.612;2023-08-24T09:04:51;24.80;99.90
22795;DHT22;11564;50.920;11.612;2023-08-24T09:07:16;24.60;99.90
22795;DHT22;11564;50.920;11.612;2023-08-24T09:09:42;24.50;99.90
22795;DHT22;11564;50.920;11.612;2023-08-24T09:12:08;24.10;99.90
22795;DHT22;11564;50.920;11.612;2023-08-24T09:14:34;24.00;99.90
22795;DHT22;11564;50.920;11.612;2023-08-24T09:17:01;24.00;99.90
22795;DHT22;11564;50.920;11.612;2023-08-24T09:19:31;24.20;99.90
22795;DHT22;11564;50.920;11.612;2023-08-24T09:22:01;24.40;99.90
22795;DHT22;11564;50.920;11.612;2023-08-24T09:24:33;24.60;99.90
22795;DHT22;11564;50.920;11.612;2023-08-24T09:27:00;25.00;99.90
22795;DHT22;11564;50.920;11.612;2023-08-24T09:29:26;25.40;99.90
22795;DHT22;11564;50.920;11.612;2023-08-24T09:31:52;25.70;99.90
22795;DHT22;11564;50.920;11.612;2023-08-24T09:34:24;25.60;99.90
22795;DHT22;11564;50.920;11.612;2023-08-24T09:36:52;25.10;99.90
22795;DHT22;11564;50.920;11.612;2023-08-24T09:39:17;25.00;99.90
22795;DHT22;11564;50.920;11.612;2023-08-24T09:41:49;24.80;99.90
22795;DHT22;11564;50.920;11.612;2023-08-24T09:44:16;24.40;99.90
22795;DHT22;11564;50.920;11.612;2023-08-24T09:46:43;24.50;99.90
22795;DHT22;11564;50.920;11.612;2023-08-24T09:49:10;24.70;99.90
22795;DHT22;11564;50.920;11.612;2023-08-24T09:51:38;24.90;99.90
22795;DHT22;11564;50.920;11.612;2023-08-24T09:54:08;25.20;99.90
22795;DHT22;11564;50.920;11.612;2023-08-24T09:56:36;25.50;99.90
22795;DHT22;11564;50.920;11.612;2023-08-24T09:59:13;25.70;99.90
22795;DHT22;11564;50.920;11.612;2023-08-24T10:01:45;26.00;99.90
22795;DHT22;11564;50.920;11.612;2023-08-24T10:04:12;26.30;99.90
22795;DHT22;11564;50.920;11.612;2023-08-24T10:06:39;26.40;99.90
22795;DHT22;11564;50.920;11.612;2023-08-24T10:09:08;26.60;99.90
22795;DHT22;11564;50.920;11.612;2023-08-24T10:11:42;26.90;99.90
22795;DHT22;11564;50.920;11.612;2023-08-24T10:14:15;27.10;99.90
22795;DHT22;11564;50.920;11.612;2023-08-24T10:16:42;27.40;99.90
22795;DHT22;11564;50.920;11.612;2023-08-24T10:19:09;27.60;99.90
22795;DHT22;11564;50.920;11.612;2023-08-24T10:21:37;27.60;99.90
22795;DHT22;11564;50.920;11.612;2023-08-24T10:24:03;27.60;98.60
22795;DHT22;11564;50.920;11.612;2023-08-24T10:26:29;27.60;99.60
22795;DHT22;11564;50.920;11.612;2023-08-24T10:28:57;27.10;99.70
22795;DHT22;11564;50.920;11.612;2023-08-24T10:31:23;26.30;99.90
22795;DHT22;11564;50.920;11.612;2023-08-24T10:33:49;26.00;99.90
22795;DHT22;11564;50.920;11.612;2023-08-24T10:36:15;25.90;99.90
22795;DHT22;11564;50.920;11.612;2023-08-24T10:38:43;25.80;99.90
22795;DHT22;11564;50.920;11.612;2023-08-24T10:41:10;25.60;99.90
22795;DHT22;11564;50.920;11.612;2023-08-24T10:43:40;25.50;99.90
22795;DHT22;11564;50.920;11.612;2023-08-24T10:46:13;25.50;99.90
22795;DHT22;11564;50.920;11.612;2023-08-24T10:56:13;25.80;99.90
22795;DHT22;11564;50.920;11.612;2023-08-24T10:58:39;26.50;99.90
22795;DHT22;11564;50.920;11.612;2023-08-24T11:01:05;27.00;99.90
22795;DHT22;11564;50.920;11.612;2023-08-24T11:03:34;27.70;99.60
22795;DHT22;11564;50.920;11.612;2023-08-24T11:05:59;28.10;97.90
22795;DHT22;11564;50.920;11.612;2023-08-24T11:08:44;28.10;97.30
22795;DHT22;11564;50.920;11.612;2023-08-24T11:11:21;28.70;95.90
22795;DHT22;11564;50.920;11.612;2023-08-24T11:14:27;29.40;95.20
22795;DHT22;11564;50.920;11.612;2023-08-24T11:17:01;29.90;93.90
22795;DHT22;11564;50.920;11.612;2023-08-24T11:19:28;30.30;93.20
22795;DHT22;11564;50.920;11.612;2023-08-24T11:21:55;30.30;92.00
22795;DHT22;11564;50.920;11.612;2023-08-24T11:24:24;30.60;88.80
22795;DHT22;11564;50.920;11.612;2023-08-24T11:26:49;30.40;82.70
22795;DHT22;11564;50.920;11.612;2023-08-24T11:29:15;30.20;85.40
22795;DHT22;11564;50.920;11.612;2023-08-24T11:31:41;30.50;82.00
22795;DHT22;11564;50.920;11.612;2023-08-24T11:34:07;30.70;81.40
22795;DHT22;11564;50.920;11.612;2023-08-24T11:36:49;30.90;80.30
22795;DHT22;11564;50.920;11.612;2023-08-24T11:39:16;30.40;80.80
22795;DHT22;11564;50.920;11.612;2023-08-24T11:41:43;30.90;82.40
22795;DHT22;11564;50.920;11.612;2023-08-24T11:44:10;31.20;79.00
22795;DHT22;11564;50.920;11.612;2023-08-24T11:46:37;30.90;77.70
22795;DHT22;11564;50.920;11.612;2023-08-24T11:49:05;30.90;81.00
22795;DHT22;11564;50.920;11.612;2023-08-24T11:51:31;30.80;84.90
22795;DHT22;11564;50.920;11.612;2023-08-24T11:53:59;30.70;82.40
22795;DHT22;11564;50.920;11.612;2023-08-24T11:56:25;30.40;80.20
22795;DHT22;11564;50.920;11.612;2023-08-24T11:58:50;30.50;81.10
22795;DHT22;11564;50.920;11.612;2023-08-24T12:01:16;30.30;78.80
22795;DHT22;11564;50.920;11.612;2023-08-24T12:03:42;30.30;81.20
22795;DHT22;11564;50.920;11.612;2023-08-24T12:06:16;30.30;77.20
22795;DHT22;11564;50.920;11.612;2023-08-24T12:08:46;30.00;75.50
22795;DHT22;11564;50.920;11.612;2023-08-24T12:11:17;30.00;76.40
22795;DHT22;11564;50.920;11.612;2023-08-24T12:13:49;30.10;77.90
22795;DHT22;11564;50.920;11.612;2023-08-24T12:16:17;30.10;76.40
22795;DHT22;11564;50.920;11.612;2023-08-24T12:18:57;30.20;77.30
22795;DHT22;11564;50.920;11.612;2023-08-24T12:21:30;30.30;75.60
22795;DHT22;11564;50.920;11.612;2023-08-24T12:24:00;30.50;79.20
22795;DHT22;11564;50.920;11.612;2023-08-24T12:26:27;30.70;77.40
22795;DHT22;11564;50.920;11.612;2023-08-24T12:28:54;30.50;78.20
22795;DHT22;11564;50.920;11.612;2023-08-24T12:31:20;30.60;81.20
22795;DHT22;11564;50.920;11.612;2023-08-24T12:34:00;30.30;75.30
22795;DHT22;11564;50.920;11.612;2023-08-24T12:36:27;30.00;74.20
22795;DHT22;11564;50.920;11.612;2023-08-24T12:38:53;30.30;79.20
22795;DHT22;11564;50.920;11.612;2023-08-24T12:41:19;30.50;76.60
22795;DHT22;11564;50.920;11.612;2023-08-24T12:43:44;30.70;75.40
22795;DHT22;11564;50.920;11.612;2023-08-24T12:46:10;30.40;75.50
22795;DHT22;11564;50.920;11.612;2023-08-24T12:48:35;30.40;76.70
22795;DHT22;11564;50.920;11.612;2023-08-24T12:51:01;30.90;76.20
22795;DHT22;11564;50.920;11.612;2023-08-24T12:53:27;31.00;77.00
22795;DHT22;11564;50.920;11.612;2023-08-24T12:55:52;30.60;74.40
22795;DHT22;11564;50.920;11.612;2023-08-24T12:58:18;30.60;74.10
22795;DHT22;11564;50.920;11.612;2023-08-24T13:00:45;30.90;76.60
22795;DHT22;11564;50.920;11.612;2023-08-24T13:03:11;31.50;75.20
22795;DHT22;11564;50.920;11.612;2023-08-24T13:05:36;32.30;71.40
22795;DHT22;11564;50.920;11.612;2023-08-24T13:08:02;34.20;70.30
22795;DHT22;11564;50.920;11.612;2023-08-24T13:10:28;37.10;63.60
22795;DHT22;11564;50.920;11.612;2023-08-24T13:12:54;39.90;59.00
22795;DHT22;11564;50.920;11.612;2023-08-24T13:15:19;43.00;51.90
22795;DHT22;11564;50.920;11.612;2023-08-24T13:17:46;45.10;48.80
22795;DHT22;11564;50.920;11.612;2023-08-24T13:20:11;46.80;48.20
22795;DHT22;11564;50.920;11.612;2023-08-24T13:22:37;48.60;44.10
22795;DHT22;11564;50.920;11.612;2023-08-24T13:25:03;49.20;42.90
22795;DHT22;11564;50.920;11.612;2023-08-24T13:27:30;50.40;40.30
22795;DHT22;11564;50.920;11.612;2023-08-24T13:30:00;52.00;39.00
22795;DHT22;11564;50.920;11.612;2023-08-24T13:32:25;53.40;37.10
22795;DHT22;11564;50.920;11.612;2023-08-24T13:34:51;52.30;37.00
22795;DHT22;11564;50.920;11.612;2023-08-24T13:37:18;53.70;36.50
22795;DHT22;11564;50.920;11.612;2023-08-24T13:39:43;53.60;34.00
22795;DHT22;11564;50.920;11.612;2023-08-24T13:42:09;54.90;33.10
22795;DHT22;11564;50.920;11.612;2023-08-24T13:44:35;54.10;34.10
22795;DHT22;11564;50.920;11.612;2023-08-24T13:47:00;53.60;34.00
22795;DHT22;11564;50.920;11.612;2023-08-24T13:49:26;54.20;33.30
22795;DHT22;11564;50.920;11.612;2023-08-24T13:51:51;52.50;35.80
22795;DHT22;11564;50.920;11.612;2023-08-24T13:54:18;51.80;33.60
22795;DHT22;11564;50.920;11.612;2023-08-24T13:56:45;51.50;34.70
22795;DHT22;11564;50.920;11.612;2023-08-24T13:59:11;52.40;33.20
22795;DHT22;11564;50.920;11.612;2023-08-24T14:01:37;52.70;34.00
22795;DHT22;11564;50.920;11.612;2023-08-24T14:04:03;52.10;35.20
22795;DHT22;11564;50.920;11.612;2023-08-24T14:06:30;49.60;34.80
22795;DHT22;11564;50.920;11.612;2023-08-24T14:08:57;49.10;35.60
22795;DHT22;11564;50.920;11.612;2023-08-24T14:11:23;48.80;38.40
22795;DHT22;11564;50.920;11.612;2023-08-24T14:13:49;49.10;37.80
22795;DHT22;11564;50.920;11.612;2023-08-24T14:16:14;49.40;37.60
22795;DHT22;11564;50.920;11.612;2023-08-24T14:18:40;47.70;39.90
22795;DHT22;11564;50.920;11.612;2023-08-24T14:21:05;46.70;40.70
22795;DHT22;11564;50.920;11.612;2023-08-24T14:23:31;44.00;44.10
22795;DHT22;11564;50.920;11.612;2023-08-24T14:25:57;43.30;47.10
22795;DHT22;11564;50.920;11.612;2023-08-24T14:28:23;42.50;48.60
22795;DHT22;11564;50.920;11.612;2023-08-24T14:30:53;42.30;49.40
22795;DHT22;11564;50.920;11.612;2023-08-24T14:33:18;42.30;50.70
22795;DHT22;11564;50.920;11.612;2023-08-24T14:35:52;42.90;47.90
22795;DHT22;11564;50.920;11.612;2023-08-24T14:38:17;43.60;47.00
22795;DHT22;11564;50.920;11.612;2023-08-24T14:40:44;44.50;46.80
22795;DHT22;11564;50.920;11.612;2023-08-24T14:43:09;44.90;46.30
22795;DHT22;11564;50.920;11.612;2023-08-24T14:45:35;43.80;48.90
22795;DHT22;11564;50.920;11.612;2023-08-24T14:48:01;44.30;44.70
22795;DHT22;11564;50.920;11.612;2023-08-24T14:50:27;44.80;44.30
22795;DHT22;11564;50.920;11.612;2023-08-24T14:52:52;43.90;45.80
22795;DHT22;11564;50.920;11.612;2023-08-24T14:55:18;44.40;45.70
22795;DHT22;11564;50.920;11.612;2023-08-24T14:57:46;46.20;44.20
22795;DHT22;11564;50.920;11.612;2023-08-24T15:00:12;47.50;41.80
22795;DHT22;11564;50.920;11.612;2023-08-24T15:02:38;47.70;40.50
22795;DHT22;11564;50.920;11.612;2023-08-24T15:05:05;46.30;40.90
22795;DHT22;11564;50.920;11.612;2023-08-24T15:07:31;45.70;42.80
22795;DHT22;11564;50.920;11.612;2023-08-24T15:09:56;46.60;42.60
22795;DHT22;11564;50.920;11.612;2023-08-24T15:12:22;46.20;44.70
22795;DHT22;11564;50.920;11.612;2023-08-24T15:15:02;47.50;42.70
22795;DHT22;11564;50.920;11.612;2023-08-24T15:17:31;47.50;42.30
22795;DHT22;11564;50.920;11.612;2023-08-24T15:19:57;47.10;41.80
22795;DHT22;11564;50.920;11.612;2023-08-24T15:22:24;47.10;41.80
22795;DHT22;11564;50.920;11.612;2023-08-24T15:24:51;47.20;41.30